Fairview, Canada
Current Conditions -  °F | °C
As of 11:00 AM on Tuesday 21 Oct 2014 (Local Time) from CYPE Reporting Station
Few Clouds Few Clouds  
Wind Chill: 39°   Ceiling: Unl
Heat Index: 43°   Visibility: 15mi
Dew Point: 39°   Wind: 7mph
Humidity: 87%   Direction: 190°S
Pressure: 29.57"   Gusts: NA
Location:  56.07°N, 118.38°W
Report Text: CYPE 211700Z 19006KT 15SM FEW150 FEW250 06/04 A2957 RMK AC1CI1 AC TR CI TR SLP033
Loading
Personal Weather Stations






























Interactive Weather Map
Tropical Storm Tracking
New forecast layout! Learn more

10-Day Weather Forecast

Advertisements
Track Severe Weather on mobile